sensor_id;sensor_type;location;lat;lon;timestamp;P1;durP1;ratioP1;P2;durP2;ratioP2
46551;SDS011;32278;51.810;4.712;2022-10-12T00:01:58;10.68;;;5.28;;
46551;SDS011;32278;51.810;4.712;2022-10-12T00:04:23;12.38;;;5.45;;
46551;SDS011;32278;51.810;4.712;2022-10-12T00:06:49;14.02;;;5.53;;
46551;SDS011;32278;51.810;4.712;2022-10-12T00:09:14;12.35;;;5.55;;
46551;SDS011;32278;51.810;4.712;2022-10-12T00:11:40;20.70;;;5.68;;
46551;SDS011;32278;51.810;4.712;2022-10-12T00:14:05;16.17;;;5.47;;
46551;SDS011;32278;51.810;4.712;2022-10-12T00:16:31;12.10;;;5.70;;
46551;SDS011;32278;51.810;4.712;2022-10-12T00:18:58;19.17;;;5.03;;
46551;SDS011;32278;51.810;4.712;2022-10-12T00:21:26;10.88;;;4.82;;
46551;SDS011;32278;51.810;4.712;2022-10-12T00:23:55;12.18;;;5.47;;
46551;SDS011;32278;51.810;4.712;2022-10-12T00:26:25;10.80;;;5.10;;
46551;SDS011;32278;51.810;4.712;2022-10-12T00:28:55;14.95;;;5.13;;
46551;SDS011;32278;51.810;4.712;2022-10-12T00:31:23;14.90;;;5.75;;
46551;SDS011;32278;51.810;4.712;2022-10-12T00:33:49;16.80;;;6.03;;
46551;SDS011;32278;51.810;4.712;2022-10-12T00:36:16;15.25;;;5.22;;
46551;SDS011;32278;51.810;4.712;2022-10-12T00:38:44;14.70;;;5.45;;
46551;SDS011;32278;51.810;4.712;2022-10-12T00:41:10;14.18;;;5.18;;
46551;SDS011;32278;51.810;4.712;2022-10-12T00:43:38;10.38;;;4.95;;
46551;SDS011;32278;51.810;4.712;2022-10-12T00:48:40;16.15;;;5.32;;
46551;SDS011;32278;51.810;4.712;2022-10-12T00:51:07;12.00;;;5.15;;
46551;SDS011;32278;51.810;4.712;2022-10-12T00:53:34;10.82;;;4.85;;
46551;SDS011;32278;51.810;4.712;2022-10-12T00:56:05;15.45;;;5.75;;
46551;SDS011;32278;51.810;4.712;2022-10-12T00:58:36;15.35;;;4.97;;
46551;SDS011;32278;51.810;4.712;2022-10-12T01:01:02;16.58;;;6.20;;
46551;SDS011;32278;51.810;4.712;2022-10-12T01:03:29;21.15;;;5.20;;
46551;SDS011;32278;51.810;4.712;2022-10-12T01:05:56;18.27;;;5.80;;
46551;SDS011;32278;51.810;4.712;2022-10-12T01:08:22;13.20;;;5.07;;
46551;SDS011;32278;51.810;4.712;2022-10-12T01:10:48;21.35;;;5.75;;
46551;SDS011;32278;51.810;4.712;2022-10-12T01:13:13;10.52;;;5.05;;
46551;SDS011;32278;51.810;4.712;2022-10-12T01:15:41;14.30;;;5.97;;
46551;SDS011;32278;51.810;4.712;2022-10-12T01:26:19;12.73;;;5.43;;
46551;SDS011;32278;51.810;4.712;2022-10-12T01:32:01;18.95;;;4.82;;
46551;SDS011;32278;51.810;4.712;2022-10-12T01:39:54;11.52;;;4.70;;
46551;SDS011;32278;51.810;4.712;2022-10-12T01:42:25;13.80;;;5.03;;
46551;SDS011;32278;51.810;4.712;2022-10-12T01:45:07;12.77;;;6.03;;
46551;SDS011;32278;51.810;4.712;2022-10-12T01:47:38;8.50;;;4.75;;
46551;SDS011;32278;51.810;4.712;2022-10-12T01:50:10;12.73;;;4.88;;
46551;SDS011;32278;51.810;4.712;2022-10-12T01:55:42;10.10;;;5.72;;
46551;SDS011;32278;51.810;4.712;2022-10-12T02:01:43;12.32;;;5.28;;
46551;SDS011;32278;51.810;4.712;2022-10-12T02:03:45;13.20;;;5.10;;
46551;SDS011;32278;51.810;4.712;2022-10-12T02:06:18;12.18;;;4.80;;
46551;SDS011;32278;51.810;4.712;2022-10-12T02:11:17;18.55;;;5.45;;
46551;SDS011;32278;51.810;4.712;2022-10-12T02:13:50;15.18;;;5.53;;
46551;SDS011;32278;51.810;4.712;2022-10-12T02:16:39;14.25;;;5.55;;
46551;SDS011;32278;51.810;4.712;2022-10-12T02:19:12;14.70;;;5.55;;
46551;SDS011;32278;51.810;4.712;2022-10-12T02:21:43;12.40;;;4.82;;
46551;SDS011;32278;51.810;4.712;2022-10-12T02:24:10;16.15;;;5.68;;
46551;SDS011;32278;51.810;4.712;2022-10-12T02:26:39;11.98;;;4.95;;
46551;SDS011;32278;51.810;4.712;2022-10-12T02:29:09;13.07;;;5.20;;
46551;SDS011;32278;51.810;4.712;2022-10-12T02:32:01;11.05;;;5.30;;
46551;SDS011;32278;51.810;4.712;2022-10-12T02:34:41;15.57;;;5.22;;
46551;SDS011;32278;51.810;4.712;2022-10-12T02:37:15;10.15;;;4.70;;
46551;SDS011;32278;51.810;4.712;2022-10-12T02:40:11;16.55;;;5.15;;
46551;SDS011;32278;51.810;4.712;2022-10-12T02:42:53;10.50;;;4.75;;
46551;SDS011;32278;51.810;4.712;2022-10-12T02:45:25;14.30;;;5.68;;
46551;SDS011;32278;51.810;4.712;2022-10-12T02:47:53;13.02;;;5.13;;
46551;SDS011;32278;51.810;4.712;2022-10-12T02:50:20;11.75;;;4.95;;
46551;SDS011;32278;51.810;4.712;2022-10-12T02:52:48;13.73;;;5.07;;
46551;SDS011;32278;51.810;4.712;2022-10-12T02:55:14;8.75;;;3.95;;
46551;SDS011;32278;51.810;4.712;2022-10-12T02:57:40;8.75;;;4.50;;
46551;SDS011;32278;51.810;4.712;2022-10-12T03:00:06;11.90;;;4.47;;
46551;SDS011;32278;51.810;4.712;2022-10-12T03:02:31;12.23;;;5.30;;
46551;SDS011;32278;51.810;4.712;2022-10-12T03:04:57;15.52;;;5.32;;
46551;SDS011;32278;51.810;4.712;2022-10-12T03:07:22;10.25;;;4.10;;
46551;SDS011;32278;51.810;4.712;2022-10-12T03:09:48;13.50;;;4.95;;
46551;SDS011;32278;51.810;4.712;2022-10-12T03:12:13;14.07;;;4.50;;
46551;SDS011;32278;51.810;4.712;2022-10-12T03:14:39;12.70;;;4.65;;
46551;SDS011;32278;51.810;4.712;2022-10-12T03:17:05;8.35;;;4.40;;
46551;SDS011;32278;51.810;4.712;2022-10-12T03:19:30;11.05;;;5.00;;
46551;SDS011;32278;51.810;4.712;2022-10-12T03:21:56;12.95;;;4.47;;
46551;SDS011;32278;51.810;4.712;2022-10-12T03:24:21;8.50;;;4.63;;
46551;SDS011;32278;51.810;4.712;2022-10-12T03:26:47;13.18;;;4.88;;
46551;SDS011;32278;51.810;4.712;2022-10-12T03:29:13;11.45;;;5.43;;
46551;SDS011;32278;51.810;4.712;2022-10-12T03:31:38;16.63;;;4.78;;
46551;SDS011;32278;51.810;4.712;2022-10-12T03:34:04;7.28;;;3.78;;
46551;SDS011;32278;51.810;4.712;2022-10-12T03:36:29;13.75;;;4.90;;
46551;SDS011;32278;51.810;4.712;2022-10-12T03:38:55;11.15;;;4.70;;
46551;SDS011;32278;51.810;4.712;2022-10-12T03:41:20;12.38;;;5.43;;
46551;SDS011;32278;51.810;4.712;2022-10-12T03:43:46;12.45;;;5.22;;
46551;SDS011;32278;51.810;4.712;2022-10-12T03:46:12;16.58;;;5.78;;
46551;SDS011;32278;51.810;4.712;2022-10-12T03:48:38;17.33;;;5.50;;
46551;SDS011;32278;51.810;4.712;2022-10-12T03:51:04;11.35;;;5.97;;
46551;SDS011;32278;51.810;4.712;2022-10-12T03:53:29;17.67;;;5.70;;
46551;SDS011;32278;51.810;4.712;2022-10-12T03:55:55;11.48;;;5.40;;
46551;SDS011;32278;51.810;4.712;2022-10-12T03:58:21;13.15;;;6.00;;
46551;SDS011;32278;51.810;4.712;2022-10-12T04:00:46;12.55;;;6.18;;
46551;SDS011;32278;51.810;4.712;2022-10-12T04:03:15;19.17;;;6.82;;
46551;SDS011;32278;51.810;4.712;2022-10-12T04:05:41;17.27;;;6.20;;
46551;SDS011;32278;51.810;4.712;2022-10-12T04:08:07;21.17;;;6.35;;
46551;SDS011;32278;51.810;4.712;2022-10-12T04:10:32;13.88;;;6.47;;
46551;SDS011;32278;51.810;4.712;2022-10-12T04:12:58;13.50;;;6.20;;
46551;SDS011;32278;51.810;4.712;2022-10-12T04:15:23;14.93;;;7.07;;
46551;SDS011;32278;51.810;4.712;2022-10-12T04:17:49;16.25;;;6.50;;
46551;SDS011;32278;51.810;4.712;2022-10-12T04:20:14;12.30;;;6.18;;
46551;SDS011;32278;51.810;4.712;2022-10-12T04:22:40;16.52;;;6.72;;
46551;SDS011;32278;51.810;4.712;2022-10-12T04:25:06;12.07;;;6.57;;
46551;SDS011;32278;51.810;4.712;2022-10-12T04:27:32;9.82;;;6.05;;
46551;SDS011;32278;51.810;4.712;2022-10-12T04:29:57;15.95;;;6.53;;
46551;SDS011;32278;51.810;4.712;2022-10-12T04:32:23;13.55;;;6.18;;
46551;SDS011;32278;51.810;4.712;2022-10-12T04:34:48;12.85;;;6.05;;
46551;SDS011;32278;51.810;4.712;2022-10-12T04:37:14;13.50;;;6.38;;
46551;SDS011;32278;51.810;4.712;2022-10-12T04:39:39;13.82;;;6.32;;
46551;SDS011;32278;51.810;4.712;2022-10-12T04:42:05;14.25;;;6.93;;
46551;SDS011;32278;51.810;4.712;2022-10-12T04:44:31;12.13;;;6.47;;
46551;SDS011;32278;51.810;4.712;2022-10-12T04:46:57;13.57;;;6.20;;
46551;SDS011;32278;51.810;4.712;2022-10-12T04:49:22;19.20;;;6.43;;
46551;SDS011;32278;51.810;4.712;2022-10-12T04:51:48;12.27;;;6.53;;
46551;SDS011;32278;51.810;4.712;2022-10-12T04:54:13;15.45;;;6.85;;
46551;SDS011;32278;51.810;4.712;2022-10-12T04:56:39;17.13;;;6.90;;
46551;SDS011;32278;51.810;4.712;2022-10-12T04:59:04;11.68;;;6.50;;
46551;SDS011;32278;51.810;4.712;2022-10-12T05:01:30;22.75;;;6.90;;
46551;SDS011;32278;51.810;4.712;2022-10-12T05:03:56;21.90;;;6.85;;
46551;SDS011;32278;51.810;4.712;2022-10-12T05:06:21;12.77;;;6.18;;
46551;SDS011;32278;51.810;4.712;2022-10-12T05:08:47;23.88;;;7.20;;
46551;SDS011;32278;51.810;4.712;2022-10-12T05:11:12;15.90;;;6.53;;
46551;SDS011;32278;51.810;4.712;2022-10-12T05:13:38;14.93;;;7.25;;
46551;SDS011;32278;51.810;4.712;2022-10-12T05:16:03;17.73;;;7.60;;
46551;SDS011;32278;51.810;4.712;2022-10-12T05:18:29;16.17;;;7.00;;
46551;SDS011;32278;51.810;4.712;2022-10-12T05:20:54;14.80;;;7.10;;
46551;SDS011;32278;51.810;4.712;2022-10-12T05:23:20;14.63;;;6.20;;
46551;SDS011;32278;51.810;4.712;2022-10-12T05:25:45;16.27;;;7.78;;
46551;SDS011;32278;51.810;4.712;2022-10-12T05:28:11;16.58;;;7.90;;
46551;SDS011;32278;51.810;4.712;2022-10-12T05:30:37;20.85;;;7.72;;
46551;SDS011;32278;51.810;4.712;2022-10-12T05:33:03;14.70;;;7.75;;
46551;SDS011;32278;51.810;4.712;2022-10-12T05:35:28;17.20;;;7.90;;
46551;SDS011;32278;51.810;4.712;2022-10-12T05:37:54;13.80;;;7.28;;
46551;SDS011;32278;51.810;4.712;2022-10-12T05:40:19;14.80;;;7.47;;
46551;SDS011;32278;51.810;4.712;2022-10-12T05:42:45;12.23;;;7.15;;
46551;SDS011;32278;51.810;4.712;2022-10-12T05:45:10;18.55;;;7.47;;
46551;SDS011;32278;51.810;4.712;2022-10-12T05:47:36;19.75;;;7.15;;
46551;SDS011;32278;51.810;4.712;2022-10-12T05:50:02;20.65;;;8.38;;
46551;SDS011;32278;51.810;4.712;2022-10-12T05:52:28;11.77;;;6.90;;
46551;SDS011;32278;51.810;4.712;2022-10-12T05:54:53;12.13;;;7.45;;
46551;SDS011;32278;51.810;4.712;2022-10-12T05:57:19;19.60;;;7.90;;
46551;SDS011;32278;51.810;4.712;2022-10-12T05:59:44;18.30;;;7.13;;
46551;SDS011;32278;51.810;4.712;2022-10-12T06:02:14;14.65;;;6.88;;
46551;SDS011;32278;51.810;4.712;2022-10-12T06:04:41;12.95;;;7.55;;
46551;SDS011;32278;51.810;4.712;2022-10-12T06:07:07;12.48;;;7.45;;
46551;SDS011;32278;51.810;4.712;2022-10-12T06:09:32;13.23;;;7.43;;
46551;SDS011;32278;51.810;4.712;2022-10-12T06:11:59;15.48;;;7.60;;
46551;SDS011;32278;51.810;4.712;2022-10-12T06:14:24;13.25;;;6.35;;
46551;SDS011;32278;51.810;4.712;2022-10-12T06:16:50;20.80;;;7.97;;
46551;SDS011;32278;51.810;4.712;2022-10-12T06:19:15;19.92;;;7.80;;
46551;SDS011;32278;51.810;4.712;2022-10-12T06:21:41;22.65;;;7.22;;
46551;SDS011;32278;51.810;4.712;2022-10-12T06:24:06;19.02;;;8.50;;
46551;SDS011;32278;51.810;4.712;2022-10-12T06:26:32;15.90;;;7.28;;
46551;SDS011;32278;51.810;4.712;2022-10-12T06:28:57;17.73;;;7.82;;
46551;SDS011;32278;51.810;4.712;2022-10-12T06:31:24;17.42;;;7.90;;
46551;SDS011;32278;51.810;4.712;2022-10-12T06:33:51;15.43;;;7.47;;
46551;SDS011;32278;51.810;4.712;2022-10-12T06:36:17;20.45;;;8.55;;
46551;SDS011;32278;51.810;4.712;2022-10-12T06:38:43;19.60;;;8.20;;
46551;SDS011;32278;51.810;4.712;2022-10-12T06:41:08;16.65;;;7.70;;
46551;SDS011;32278;51.810;4.712;2022-10-12T06:43:34;13.82;;;8.05;;
46551;SDS011;32278;51.810;4.712;2022-10-12T06:45:59;16.42;;;8.05;;
46551;SDS011;32278;51.810;4.712;2022-10-12T06:48:25;16.67;;;7.78;;
46551;SDS011;32278;51.810;4.712;2022-10-12T06:50:51;27.80;;;8.60;;
46551;SDS011;32278;51.810;4.712;2022-10-12T06:53:17;15.35;;;8.25;;
46551;SDS011;32278;51.810;4.712;2022-10-12T06:55:43;15.95;;;7.82;;
46551;SDS011;32278;51.810;4.712;2022-10-12T06:58:08;13.18;;;7.60;;
46551;SDS011;32278;51.810;4.712;2022-10-12T07:00:34;19.25;;;8.63;;
46551;SDS011;32278;51.810;4.712;2022-10-12T07:03:00;25.45;;;8.52;;
46551;SDS011;32278;51.810;4.712;2022-10-12T07:05:25;13.10;;;7.60;;
46551;SDS011;32278;51.810;4.712;2022-10-12T07:07:51;17.40;;;7.88;;
46551;SDS011;32278;51.810;4.712;2022-10-12T07:10:17;21.02;;;9.98;;
46551;SDS011;32278;51.810;4.712;2022-10-12T07:12:43;16.08;;;8.93;;
46551;SDS011;32278;51.810;4.712;2022-10-12T07:15:09;29.73;;;10.10;;
46551;SDS011;32278;51.810;4.712;2022-10-12T07:17:34;34.92;;;10.38;;
46551;SDS011;32278;51.810;4.712;2022-10-12T07:20:00;35.95;;;9.55;;
46551;SDS011;32278;51.810;4.712;2022-10-12T07:22:26;27.25;;;11.38;;
46551;SDS011;32278;51.810;4.712;2022-10-12T07:24:52;23.00;;;10.02;;
46551;SDS011;32278;51.810;4.712;2022-10-12T07:27:17;32.55;;;10.32;;
46551;SDS011;32278;51.810;4.712;2022-10-12T07:29:43;24.10;;;10.35;;
46551;SDS011;32278;51.810;4.712;2022-10-12T07:32:08;21.98;;;10.32;;
46551;SDS011;32278;51.810;4.712;2022-10-12T07:34:34;27.35;;;10.20;;
46551;SDS011;32278;51.810;4.712;2022-10-12T07:36:59;25.25;;;11.98;;
46551;SDS011;32278;51.810;4.712;2022-10-12T07:39:25;20.73;;;9.30;;
46551;SDS011;32278;51.810;4.712;2022-10-12T07:41:51;34.10;;;10.10;;
46551;SDS011;32278;51.810;4.712;2022-10-12T07:44:17;25.35;;;12.13;;
46551;SDS011;32278;51.810;4.712;2022-10-12T07:46:44;18.10;;;9.27;;
46551;SDS011;32278;51.810;4.712;2022-10-12T07:49:13;21.85;;;10.05;;
46551;SDS011;32278;51.810;4.712;2022-10-12T07:51:39;26.95;;;10.75;;
46551;SDS011;32278;51.810;4.712;2022-10-12T07:54:05;25.67;;;11.32;;
46551;SDS011;32278;51.810;4.712;2022-10-12T07:56:31;17.67;;;9.52;;
46551;SDS011;32278;51.810;4.712;2022-10-12T07:58:57;20.50;;;9.18;;
46551;SDS011;32278;51.810;4.712;2022-10-12T08:01:24;13.85;;;8.93;;
46551;SDS011;32278;51.810;4.712;2022-10-12T08:03:51;20.98;;;10.73;;
46551;SDS011;32278;51.810;4.712;2022-10-12T08:06:19;27.80;;;10.73;;
46551;SDS011;32278;51.810;4.712;2022-10-12T08:08:46;19.80;;;9.52;;
46551;SDS011;32278;51.810;4.712;2022-10-12T08:11:12;20.83;;;10.70;;
46551;SDS011;32278;51.810;4.712;2022-10-12T08:13:38;22.23;;;10.30;;
46551;SDS011;32278;51.810;4.712;2022-10-12T08:16:05;23.40;;;11.52;;
46551;SDS011;32278;51.810;4.712;2022-10-12T08:18:34;22.70;;;11.07;;
46551;SDS011;32278;51.810;4.712;2022-10-12T08:21:02;22.02;;;10.73;;
46551;SDS011;32278;51.810;4.712;2022-10-12T08:23:29;21.85;;;11.18;;
46551;SDS011;32278;51.810;4.712;2022-10-12T08:25:55;26.85;;;11.35;;
46551;SDS011;32278;51.810;4.712;2022-10-12T08:28:21;27.63;;;10.25;;
46551;SDS011;32278;51.810;4.712;2022-10-12T08:30:48;26.35;;;10.02;;
46551;SDS011;32278;51.810;4.712;2022-10-12T08:33:14;23.33;;;10.55;;
46551;SDS011;32278;51.810;4.712;2022-10-12T08:35:41;22.65;;;10.82;;
46551;SDS011;32278;51.810;4.712;2022-10-12T08:38:08;24.50;;;10.98;;
46551;SDS011;32278;51.810;4.712;2022-10-12T08:40:51;21.35;;;9.65;;
46551;SDS011;32278;51.810;4.712;2022-10-12T08:45:50;25.90;;;10.90;;
46551;SDS011;32278;51.810;4.712;2022-10-12T08:48:21;23.20;;;10.40;;
46551;SDS011;32278;51.810;4.712;2022-10-12T08:51:13;19.73;;;10.43;;
46551;SDS011;32278;51.810;4.712;2022-10-12T08:53:51;17.33;;;10.32;;
46551;SDS011;32278;51.810;4.712;2022-10-12T08:56:30;24.90;;;10.73;;
46551;SDS011;32278;51.810;4.712;2022-10-12T08:58:58;25.63;;;10.73;;
46551;SDS011;32278;51.810;4.712;2022-10-12T09:01:30;28.02;;;11.32;;
46551;SDS011;32278;51.810;4.712;2022-10-12T09:12:36;21.25;;;9.50;;
46551;SDS011;32278;51.810;4.712;2022-10-12T09:15:13;19.08;;;9.32;;
46551;SDS011;32278;51.810;4.712;2022-10-12T09:17:51;22.90;;;9.38;;
46551;SDS011;32278;51.810;4.712;2022-10-12T09:20:25;20.83;;;8.80;;
46551;SDS011;32278;51.810;4.712;2022-10-12T09:22:56;17.83;;;8.90;;
46551;SDS011;32278;51.810;4.712;2022-10-12T09:25:29;23.35;;;8.35;;
46551;SDS011;32278;51.810;4.712;2022-10-12T09:28:01;20.02;;;7.82;;
46551;SDS011;32278;51.810;4.712;2022-10-12T09:30:38;19.95;;;6.38;;
46551;SDS011;32278;51.810;4.712;2022-10-12T09:35:46;14.38;;;6.38;;
46551;SDS011;32278;51.810;4.712;2022-10-12T09:38:14;21.33;;;7.72;;
46551;SDS011;32278;51.810;4.712;2022-10-12T09:40:40;23.88;;;8.38;;
46551;SDS011;32278;51.810;4.712;2022-10-12T09:43:06;17.33;;;7.85;;
46551;SDS011;32278;51.810;4.712;2022-10-12T09:45:33;23.20;;;7.57;;
46551;SDS011;32278;51.810;4.712;2022-10-12T09:48:19;22.08;;;7.75;;
46551;SDS011;32278;51.810;4.712;2022-10-12T09:50:50;19.65;;;6.82;;
46551;SDS011;32278;51.810;4.712;2022-10-12T09:53:34;20.05;;;7.30;;
46551;SDS011;32278;51.810;4.712;2022-10-12T09:56:20;14.85;;;7.78;;
46551;SDS011;32278;51.810;4.712;2022-10-12T09:58:59;23.65;;;8.50;;
46551;SDS011;32278;51.810;4.712;2022-10-12T10:01:27;14.85;;;7.60;;
46551;SDS011;32278;51.810;4.712;2022-10-12T10:04:17;13.25;;;8.20;;
46551;SDS011;32278;51.810;4.712;2022-10-12T10:06:46;16.63;;;8.20;;
46551;SDS011;32278;51.810;4.712;2022-10-12T10:09:31;22.58;;;7.78;;
46551;SDS011;32278;51.810;4.712;2022-10-12T10:12:20;22.58;;;8.93;;
46551;SDS011;32278;51.810;4.712;2022-10-12T10:14:46;25.48;;;9.02;;
46551;SDS011;32278;51.810;4.712;2022-10-12T10:17:21;22.52;;;8.20;;
46551;SDS011;32278;51.810;4.712;2022-10-12T10:19:52;21.30;;;8.23;;
46551;SDS011;32278;51.810;4.712;2022-10-12T10:22:19;23.55;;;8.27;;
46551;SDS011;32278;51.810;4.712;2022-10-12T10:24:50;20.25;;;9.27;;
46551;SDS011;32278;51.810;4.712;2022-10-12T10:32:40;31.48;;;12.27;;
46551;SDS011;32278;51.810;4.712;2022-10-12T10:37:41;24.00;;;10.87;;
46551;SDS011;32278;51.810;4.712;2022-10-12T10:40:28;23.73;;;11.15;;
46551;SDS011;32278;51.810;4.712;2022-10-12T10:42:56;22.10;;;10.60;;
46551;SDS011;32278;51.810;4.712;2022-10-12T10:45:42;18.67;;;9.38;;
46551;SDS011;32278;51.810;4.712;2022-10-12T10:48:18;27.33;;;11.98;;
46551;SDS011;32278;51.810;4.712;2022-10-12T10:50:54;23.38;;;11.13;;
46551;SDS011;32278;51.810;4.712;2022-10-12T10:53:25;24.38;;;12.77;;
46551;SDS011;32278;51.810;4.712;2022-10-12T10:58:51;27.45;;;11.15;;
46551;SDS011;32278;51.810;4.712;2022-10-12T11:02:07;22.05;;;10.50;;
46551;SDS011;32278;51.810;4.712;2022-10-12T11:04:23;30.13;;;11.95;;
46551;SDS011;32278;51.810;4.712;2022-10-12T11:07:02;27.27;;;11.13;;
46551;SDS011;32278;51.810;4.712;2022-10-12T11:09:39;28.48;;;11.18;;
46551;SDS011;32278;51.810;4.712;2022-10-12T11:12:08;32.30;;;12.45;;
46551;SDS011;32278;51.810;4.712;2022-10-12T11:14:47;28.50;;;11.70;;
46551;SDS011;32278;51.810;4.712;2022-10-12T11:17:17;26.92;;;12.85;;
46551;SDS011;32278;51.810;4.712;2022-10-12T11:22:16;36.08;;;15.18;;
46551;SDS011;32278;51.810;4.712;2022-10-12T11:25:09;27.88;;;11.95;;
46551;SDS011;32278;51.810;4.712;2022-10-12T11:27:43;28.45;;;14.32;;
46551;SDS011;32278;51.810;4.712;2022-10-12T11:30:13;28.17;;;12.95;;
46551;SDS011;32278;51.810;4.712;2022-10-12T11:32:42;23.60;;;11.15;;
46551;SDS011;32278;51.810;4.712;2022-10-12T11:35:33;24.55;;;10.40;;
46551;SDS011;32278;51.810;4.712;2022-10-12T11:38:02;21.45;;;9.73;;
46551;SDS011;32278;51.810;4.712;2022-10-12T11:40:52;25.85;;;11.07;;
46551;SDS011;32278;51.810;4.712;2022-10-12T11:43:52;27.58;;;10.88;;
46551;SDS011;32278;51.810;4.712;2022-10-12T11:46:31;20.45;;;10.25;;
46551;SDS011;32278;51.810;4.712;2022-10-12T11:49:23;26.63;;;10.48;;
46551;SDS011;32278;51.810;4.712;2022-10-12T11:51:51;24.83;;;9.38;;
46551;SDS011;32278;51.810;4.712;2022-10-12T11:54:31;17.98;;;9.70;;
46551;SDS011;32278;51.810;4.712;2022-10-12T11:57:09;26.88;;;9.93;;
46551;SDS011;32278;51.810;4.712;2022-10-12T11:59:49;23.58;;;9.40;;
46551;SDS011;32278;51.810;4.712;2022-10-12T12:02:36;18.67;;;7.85;;
46551;SDS011;32278;51.810;4.712;2022-10-12T12:05:05;19.00;;;8.60;;
46551;SDS011;32278;51.810;4.712;2022-10-12T12:07:46;19.10;;;8.35;;
46551;SDS011;32278;51.810;4.712;2022-10-12T12:15:40;25.38;;;7.97;;
46551;SDS011;32278;51.810;4.712;2022-10-12T12:18:23;22.55;;;8.90;;
46551;SDS011;32278;51.810;4.712;2022-10-12T12:23:36;19.77;;;8.75;;
46551;SDS011;32278;51.810;4.712;2022-10-12T12:28:33;21.45;;;8.60;;
46551;SDS011;32278;51.810;4.712;2022-10-12T12:31:03;19.75;;;7.78;;
46551;SDS011;32278;51.810;4.712;2022-10-12T12:33:33;20.98;;;7.88;;
46551;SDS011;32278;51.810;4.712;2022-10-12T12:36:06;12.52;;;5.30;;
46551;SDS011;32278;51.810;4.712;2022-10-12T12:38:35;21.80;;;6.72;;
46551;SDS011;32278;51.810;4.712;2022-10-12T12:41:07;16.55;;;5.95;;
46551;SDS011;32278;51.810;4.712;2022-10-12T12:43:49;14.15;;;5.68;;
46551;SDS011;32278;51.810;4.712;2022-10-12T12:46:20;15.77;;;6.00;;
46551;SDS011;32278;51.810;4.712;2022-10-12T12:53:46;15.60;;;5.95;;
46551;SDS011;32278;51.810;4.712;2022-10-12T12:56:18;16.00;;;5.95;;
46551;SDS011;32278;51.810;4.712;2022-10-12T13:04:42;13.38;;;4.25;;
46551;SDS011;32278;51.810;4.712;2022-10-12T13:12:56;17.10;;;5.72;;
46551;SDS011;32278;51.810;4.712;2022-10-12T13:18:41;13.90;;;5.15;;
46551;SDS011;32278;51.810;4.712;2022-10-12T13:21:17;14.57;;;4.78;;
46551;SDS011;32278;51.810;4.712;2022-10-12T13:23:49;11.30;;;4.65;;
46551;SDS011;32278;51.810;4.712;2022-10-12T13:26:21;12.57;;;5.03;;
46551;SDS011;32278;51.810;4.712;2022-10-12T13:28:51;12.88;;;4.03;;
46551;SDS011;32278;51.810;4.712;2022-10-12T13:31:20;15.50;;;5.07;;
46551;SDS011;32278;51.810;4.712;2022-10-12T13:33:59;12.82;;;4.80;;
46551;SDS011;32278;51.810;4.712;2022-10-12T13:37:12;11.68;;;4.25;;
46551;SDS011;32278;51.810;4.712;2022-10-12T13:39:38;11.52;;;4.45;;
46551;SDS011;32278;51.810;4.712;2022-10-12T13:42:10;16.10;;;4.88;;
46551;SDS011;32278;51.810;4.712;2022-10-12T13:44:40;13.32;;;4.40;;
46551;SDS011;32278;51.810;4.712;2022-10-12T13:47:26;12.77;;;4.53;;
46551;SDS011;32278;51.810;4.712;2022-10-12T13:49:53;12.68;;;5.22;;
46551;SDS011;32278;51.810;4.712;2022-10-12T13:52:25;10.52;;;4.45;;
46551;SDS011;32278;51.810;4.712;2022-10-12T13:54:55;11.48;;;4.65;;
46551;SDS011;32278;51.810;4.712;2022-10-12T13:57:39;10.70;;;4.00;;
46551;SDS011;32278;51.810;4.712;2022-10-12T14:02:41;12.38;;;3.55;;
46551;SDS011;32278;51.810;4.712;2022-10-12T14:05:18;12.60;;;4.70;;
46551;SDS011;32278;51.810;4.712;2022-10-12T14:07:49;10.50;;;3.17;;
46551;SDS011;32278;51.810;4.712;2022-10-12T14:10:18;8.15;;;3.60;;
46551;SDS011;32278;51.810;4.712;2022-10-12T14:12:53;11.40;;;3.63;;
46551;SDS011;32278;51.810;4.712;2022-10-12T14:15:20;18.50;;;3.97;;
46551;SDS011;32278;51.810;4.712;2022-10-12T14:17:48;13.63;;;4.47;;
46551;SDS011;32278;51.810;4.712;2022-10-12T14:20:23;9.85;;;3.97;;
46551;SDS011;32278;51.810;4.712;2022-10-12T14:23:01;10.07;;;3.38;;
46551;SDS011;32278;51.810;4.712;2022-10-12T14:25:34;11.35;;;3.60;;
46551;SDS011;32278;51.810;4.712;2022-10-12T14:28:00;10.98;;;4.50;;
46551;SDS011;32278;51.810;4.712;2022-10-12T14:30:29;11.38;;;3.75;;
46551;SDS011;32278;51.810;4.712;2022-10-12T14:35:40;10.82;;;4.22;;
46551;SDS011;32278;51.810;4.712;2022-10-12T14:44:06;13.23;;;5.40;;
46551;SDS011;32278;51.810;4.712;2022-10-12T14:46:35;11.95;;;5.57;;
46551;SDS011;32278;51.810;4.712;2022-10-12T14:49:18;12.32;;;5.30;;
46551;SDS011;32278;51.810;4.712;2022-10-12T14:51:46;16.63;;;4.78;;
46551;SDS011;32278;51.810;4.712;2022-10-12T14:54:13;14.55;;;5.03;;
46551;SDS011;32278;51.810;4.712;2022-10-12T14:56:38;11.10;;;5.05;;
46551;SDS011;32278;51.810;4.712;2022-10-12T14:59:04;10.75;;;4.95;;
46551;SDS011;32278;51.810;4.712;2022-10-12T15:01:30;13.95;;;5.63;;
46551;SDS011;32278;51.810;4.712;2022-10-12T15:03:55;13.40;;;5.57;;
46551;SDS011;32278;51.810;4.712;2022-10-12T15:06:21;13.73;;;3.85;;
46551;SDS011;32278;51.810;4.712;2022-10-12T15:08:46;13.77;;;4.28;;
46551;SDS011;32278;51.810;4.712;2022-10-12T15:11:13;11.23;;;4.18;;
46551;SDS011;32278;51.810;4.712;2022-10-12T15:13:40;13.02;;;5.57;;
46551;SDS011;32278;51.810;4.712;2022-10-12T15:16:15;12.15;;;4.30;;
46551;SDS011;32278;51.810;4.712;2022-10-12T15:18:52;11.00;;;3.85;;
46551;SDS011;32278;51.810;4.712;2022-10-12T15:21:18;9.52;;;4.18;;
46551;SDS011;32278;51.810;4.712;2022-10-12T15:23:44;13.60;;;4.32;;
46551;SDS011;32278;51.810;4.712;2022-10-12T15:26:13;12.32;;;4.07;;
46551;SDS011;32278;51.810;4.712;2022-10-12T15:28:40;12.88;;;3.45;;
46551;SDS011;32278;51.810;4.712;2022-10-12T15:31:11;11.45;;;4.35;;
46551;SDS011;32278;51.810;4.712;2022-10-12T15:33:39;7.93;;;3.55;;
46551;SDS011;32278;51.810;4.712;2022-10-12T15:36:05;18.20;;;4.40;;
46551;SDS011;32278;51.810;4.712;2022-10-12T15:38:31;14.73;;;5.05;;
46551;SDS011;32278;51.810;4.712;2022-10-12T15:40:57;11.93;;;3.90;;
46551;SDS011;32278;51.810;4.712;2022-10-12T15:43:23;17.08;;;5.32;;
46551;SDS011;32278;51.810;4.712;2022-10-12T15:45:49;11.52;;;4.20;;
46551;SDS011;32278;51.810;4.712;2022-10-12T15:48:15;12.27;;;4.38;;
46551;SDS011;32278;51.810;4.712;2022-10-12T15:50:42;12.38;;;3.38;;
46551;SDS011;32278;51.810;4.712;2022-10-12T15:53:10;8.27;;;3.67;;
46551;SDS011;32278;51.810;4.712;2022-10-12T15:55:39;12.20;;;4.13;;
46551;SDS011;32278;51.810;4.712;2022-10-12T15:58:05;14.55;;;3.53;;
46551;SDS011;32278;51.810;4.712;2022-10-12T16:00:31;7.82;;;3.00;;
46551;SDS011;32278;51.810;4.712;2022-10-12T16:02:57;13.00;;;3.55;;
46551;SDS011;32278;51.810;4.712;2022-10-12T16:05:28;9.30;;;4.20;;
46551;SDS011;32278;51.810;4.712;2022-10-12T16:07:54;8.27;;;3.08;;
46551;SDS011;32278;51.810;4.712;2022-10-12T16:10:20;13.07;;;3.38;;
46551;SDS011;32278;51.810;4.712;2022-10-12T16:12:48;9.73;;;3.40;;
46551;SDS011;32278;51.810;4.712;2022-10-12T16:15:21;12.55;;;3.70;;
46551;SDS011;32278;51.810;4.712;2022-10-12T16:17:53;7.95;;;4.18;;
46551;SDS011;32278;51.810;4.712;2022-10-12T16:20:19;11.75;;;4.10;;
46551;SDS011;32278;51.810;4.712;2022-10-12T16:22:45;16.40;;;4.07;;
46551;SDS011;32278;51.810;4.712;2022-10-12T16:25:12;13.20;;;4.35;;